Time,TemperatureF,DewpointF,PressureIn,WindDirection,WindDirectionDegrees,WindSpeedMPH,WindSpeedGustMPH,Humidity,HourlyPrecipIn,Conditions,Clouds,dailyrainin,SoftwareType,DateUTC
2013-03-23 00:02:00,48.0,27.0,29.64,SE,133,4.0,-999.0,43,-99.99,,,-99.99,,2013-03-23 07:02:00,
2013-03-23 00:11:00,48.0,27.0,29.64,SE,133,4.0,-999.0,43,-99.99,,,-99.99,,2013-03-23 07:11:00,
2013-03-23 00:22:00,49.0,26.0,29.63,SSE,158,2.0,-999.0,40,-99.99,,,-99.99,,2013-03-23 07:22:00,
2013-03-23 00:32:00,49.0,25.0,29.64,South,169,2.0,-999.0,38,-99.99,,,-99.99,,2013-03-23 07:32:00,
2013-03-23 00:41:00,49.0,25.0,29.64,South,169,2.0,-999.0,38,-99.99,,,-99.99,,2013-03-23 07:41:00,
2013-03-23 00:52:00,50.0,25.0,29.65,SSE,165,1.0,-999.0,37,-99.99,,,-99.99,,2013-03-23 07:52:00,
2013-03-23 01:02:00,49.0,24.0,29.64,ESE,123,0.0,-999.0,37,-99.99,,,-99.99,,2013-03-23 08:02:00,
2013-03-23 01:12:00,49.0,24.0,29.64,ESE,123,0.0,-999.0,37,-99.99,,,-99.99,,2013-03-23 08:12:00,
2013-03-23 01:22:00,50.0,23.0,29.64,East,100,1.0,-999.0,34,-99.99,,,-99.99,,2013-03-23 08:22:00,
2013-03-23 01:32:00,50.0,23.0,29.63,South,175,0.0,-999.0,34,-99.99,,,-99.99,,2013-03-23 08:32:00,
2013-03-23 01:52:00,49.0,21.0,29.64,South,169,1.0,-999.0,33,-99.99,,,-99.99,,2013-03-23 08:52:00,
2013-03-23 02:02:00,49.0,21.0,29.64,SSW,198,1.0,-999.0,33,-99.99,,,-99.99,,2013-03-23 09:02:00,
2013-03-23 02:11:00,49.0,21.0,29.64,SSW,198,1.0,-999.0,33,-99.99,,,-99.99,,2013-03-23 09:11:00,
2013-03-23 02:21:00,49.0,21.0,29.64,South,173,1.0,-999.0,33,-99.99,,,-99.99,,2013-03-23 09:21:00,
2013-03-23 02:32:00,47.0,21.0,29.64,South,176,1.0,-999.0,35,-99.99,,,-99.99,,2013-03-23 09:32:00,
2013-03-23 02:42:00,47.0,21.0,29.64,South,176,1.0,-999.0,35,-99.99,,,-99.99,,2013-03-23 09:42:00,
2013-03-23 02:52:00,47.0,18.0,29.63,South,178,1.0,-999.0,31,-99.99,,,-99.99,,2013-03-23 09:52:00,
2013-03-23 03:03:00,49.0,19.0,29.62,South,171,1.0,-999.0,30,-99.99,,,-99.99,,2013-03-23 10:03:00,
2013-03-23 03:12:00,49.0,19.0,29.62,South,171,1.0,-999.0,30,-99.99,,,-99.99,,2013-03-23 10:12:00,
2013-03-23 03:22:00,49.0,17.0,29.62,South,169,1.0,-999.0,28,-99.99,,,-99.99,,2013-03-23 10:22:00,
2013-03-23 03:33:00,49.0,17.0,29.62,ESE,111,2.0,-999.0,28,-99.99,,,-99.99,,2013-03-23 10:33:00,
2013-03-23 03:42:00,49.0,17.0,29.62,ESE,111,2.0,-999.0,28,-99.99,,,-99.99,,2013-03-23 10:42:00,
2013-03-23 03:52:00,49.0,17.0,29.62,SSE,153,1.0,-999.0,28,-99.99,,,-99.99,,2013-03-23 10:52:00,
2013-03-23 04:02:00,49.0,19.0,29.62,SSE,163,1.0,-999.0,30,-99.99,,,-99.99,,2013-03-23 11:02:00,
2013-03-23 04:21:00,48.0,18.0,29.62,SSE,155,1.0,-999.0,30,-99.99,,,-99.99,,2013-03-23 11:21:00,
2013-03-23 04:32:00,49.0,20.0,29.62,East,86,0.0,-999.0,31,-99.99,,,-99.99,,2013-03-23 11:32:00,
2013-03-23 04:51:00,49.0,20.0,29.61,South,175,0.0,-999.0,31,-99.99,,,-99.99,,2013-03-23 11:51:00,
2013-03-23 05:02:00,49.0,20.0,29.61,South,175,0.0,-999.0,31,-99.99,,,-99.99,,2013-03-23 12:02:00,
2013-03-23 05:12:00,49.0,20.0,29.61,South,175,0.0,-999.0,31,-99.99,,,-99.99,,2013-03-23 12:12:00,
2013-03-23 05:22:00,49.0,20.0,29.62,SSW,192,1.0,-999.0,32,-99.99,,,-99.99,,2013-03-23 12:22:00,
2013-03-23 05:32:00,48.0,20.0,29.62,SSE,156,1.0,-999.0,33,-99.99,,,-99.99,,2013-03-23 12:32:00,
2013-03-23 05:43:00,48.0,20.0,29.62,SSE,156,1.0,-999.0,33,-99.99,,,-99.99,,2013-03-23 12:43:00,
2013-03-23 05:53:00,48.0,21.0,29.62,SE,142,0.0,-999.0,34,-99.99,,,-99.99,,2013-03-23 12:53:00,
2013-03-23 06:01:00,48.0,22.0,29.62,SSE,162,1.0,-999.0,35,-99.99,,,-99.99,,2013-03-23 13:01:00,
2013-03-23 06:11:00,48.0,22.0,29.62,SSE,162,1.0,-999.0,35,-99.99,,,-99.99,,2013-03-23 13:11:00,
2013-03-23 06:21:00,48.0,22.0,29.62,ESE,105,0.0,-999.0,35,-99.99,,,-99.99,,2013-03-23 13:21:00,
2013-03-23 06:32:00,48.0,22.0,29.62,SSE,148,0.0,-999.0,36,-99.99,,,-99.99,,2013-03-23 13:32:00,
2013-03-23 06:42:00,48.0,22.0,29.62,SSE,148,0.0,-999.0,36,-99.99,,,-99.99,,2013-03-23 13:42:00,
2013-03-23 06:52:00,48.0,22.0,29.62,SSE,168,1.0,-999.0,36,-99.99,,,-99.99,,2013-03-23 13:52:00,
2013-03-23 07:02:00,48.0,22.0,29.63,SSE,160,0.0,-999.0,36,-99.99,,,-99.99,,2013-03-23 14:02:00,
2013-03-23 07:11:00,48.0,22.0,29.63,SSE,160,0.0,-999.0,36,-99.99,,,-99.99,,2013-03-23 14:11:00,
2013-03-23 07:21:00,48.0,22.0,29.64,SE,137,1.0,-999.0,36,-99.99,,,-99.99,,2013-03-23 14:21:00,
2013-03-23 07:32:00,48.0,22.0,29.63,SSE,153,1.0,-999.0,36,-99.99,,,-99.99,,2013-03-23 14:32:00,
2013-03-23 07:42:00,48.0,22.0,29.63,SSE,153,1.0,-999.0,36,-99.99,,,-99.99,,2013-03-23 14:42:00,
2013-03-23 07:52:00,48.0,21.0,29.63,SSE,157,1.0,-999.0,34,-99.99,,,-99.99,,2013-03-23 14:52:00,
2013-03-23 08:02:00,49.0,22.0,29.63,SE,129,2.0,-999.0,34,-99.99,,,-99.99,,2013-03-23 15:02:00,
2013-03-23 08:11:00,49.0,22.0,29.63,SE,129,2.0,-999.0,34,-99.99,,,-99.99,,2013-03-23 15:11:00,
2013-03-23 08:22:00,50.0,21.0,29.65,ESE,118,1.0,-999.0,32,-99.99,,,-99.99,,2013-03-23 15:22:00,
2013-03-23 08:33:00,50.0,21.0,29.65,ESE,118,1.0,-999.0,32,-99.99,,,-99.99,,2013-03-23 15:33:00,
2013-03-23 08:43:00,50.0,21.0,29.65,ESE,118,1.0,-999.0,32,-99.99,,,-99.99,,2013-03-23 15:43:00,
2013-03-23 08:52:00,50.0,23.0,29.66,ENE,73,2.0,-999.0,35,-99.99,,,-99.99,,2013-03-23 15:52:00,
2013-03-23 09:03:00,51.0,25.0,29.67,ENE,74,0.0,-999.0,36,-99.99,,,-99.99,,2013-03-23 16:03:00,
2013-03-23 09:12:00,51.0,25.0,29.67,ENE,74,0.0,-999.0,36,-99.99,,,-99.99,,2013-03-23 16:12:00,
2013-03-23 09:22:00,51.0,24.0,29.67,NNE,22,2.0,-999.0,35,-99.99,,,-99.99,,2013-03-23 16:22:00,
2013-03-23 09:32:00,52.0,26.0,29.67,ENE,76,0.0,-999.0,36,-99.99,,,-99.99,,2013-03-23 16:32:00,
2013-03-23 09:42:00,52.0,26.0,29.67,ENE,76,0.0,-999.0,36,-99.99,,,-99.99,,2013-03-23 16:42:00,
2013-03-23 09:52:00,53.0,27.0,29.67,ESE,110,0.0,-999.0,36,-99.99,,,-99.99,,2013-03-23 16:52:00,
2013-03-23 10:02:00,53.0,27.0,29.67,East,101,0.0,-999.0,36,-99.99,,,-99.99,,2013-03-23 17:02:00,
2013-03-23 10:11:00,53.0,27.0,29.67,East,101,0.0,-999.0,36,-99.99,,,-99.99,,2013-03-23 17:11:00,
2013-03-23 10:22:00,53.0,27.0,29.67,East,101,0.0,-999.0,36,-99.99,,,-99.99,,2013-03-23 17:22:00,
2013-03-23 10:32:00,59.0,28.0,29.66,SSW,200,1.0,-999.0,31,-99.99,,,-99.99,,2013-03-23 17:32:00,
2013-03-23 10:42:00,59.0,28.0,29.66,SSW,200,1.0,-999.0,31,-99.99,,,-99.99,,2013-03-23 17:42:00,
2013-03-23 10:52:00,60.0,28.0,29.66,East,99,1.0,-999.0,30,-99.99,,,-99.99,,2013-03-23 17:52:00,
2013-03-23 11:02:00,61.0,26.0,29.66,ESE,107,1.0,-999.0,26,-99.99,,,-99.99,,2013-03-23 18:02:00,
2013-03-23 11:12:00,61.0,26.0,29.66,ESE,107,1.0,-999.0,26,-99.99,,,-99.99,,2013-03-23 18:12:00,
2013-03-23 11:22:00,61.0,25.0,29.66,East,96,0.0,-999.0,25,-99.99,,,-99.99,,2013-03-23 18:22:00,
2013-03-23 11:32:00,62.0,25.0,29.65,NNE,23,2.0,-999.0,24,-99.99,,,-99.99,,2013-03-23 18:32:00,
2013-03-23 11:52:00,62.0,27.0,29.66,NE,42,0.0,-999.0,26,-99.99,,,-99.99,,2013-03-23 18:52:00,
2013-03-23 12:02:00,62.0,25.0,29.66,North,355,1.0,-999.0,24,-99.99,,,-99.99,,2013-03-23 19:02:00,
2013-03-23 12:12:00,62.0,25.0,29.66,North,355,1.0,-999.0,24,-99.99,,,-99.99,,2013-03-23 19:12:00,
2013-03-23 12:22:00,63.0,25.0,29.66,ENE,76,2.0,-999.0,23,-99.99,,,-99.99,,2013-03-23 19:22:00,
2013-03-23 12:32:00,63.0,28.0,29.66,NE,44,2.0,-999.0,26,-99.99,,,-99.99,,2013-03-23 19:32:00,
2013-03-23 12:42:00,63.0,28.0,29.66,NE,44,2.0,-999.0,26,-99.99,,,-99.99,,2013-03-23 19:42:00,
2013-03-23 12:52:00,63.0,29.0,29.65,East,87,3.0,-999.0,28,-99.99,,,-99.99,,2013-03-23 19:52:00,
2013-03-23 13:02:00,63.0,27.0,29.65,NE,39,4.0,-999.0,25,-99.99,,,-99.99,,2013-03-23 20:02:00,
2013-03-23 13:12:00,63.0,27.0,29.65,NE,39,4.0,-999.0,25,-99.99,,,-99.99,,2013-03-23 20:12:00,
2013-03-23 13:22:00,63.0,27.0,29.65,NNE,30,3.0,-999.0,25,-99.99,,,-99.99,,2013-03-23 20:22:00,
2013-03-23 13:32:00,64.0,29.0,29.65,NE,34,4.0,-999.0,27,-99.99,,,-99.99,,2013-03-23 20:32:00,
2013-03-23 13:42:00,64.0,29.0,29.65,NE,34,4.0,-999.0,27,-99.99,,,-99.99,,2013-03-23 20:42:00,
2013-03-23 13:52:00,65.0,27.0,29.64,ENE,68,2.0,-999.0,24,-99.99,,,-99.99,,2013-03-23 20:52:00,
2013-03-23 14:02:00,64.0,27.0,29.64,NE,40,2.0,-999.0,25,-99.99,,,-99.99,,2013-03-23 21:02:00,
2013-03-23 14:12:00,64.0,27.0,29.64,NE,40,2.0,-999.0,25,-99.99,,,-99.99,,2013-03-23 21:12:00,
2013-03-23 14:22:00,64.0,34.0,29.63,NNE,33,3.0,-999.0,32,-99.99,,,-99.99,,2013-03-23 21:22:00,
2013-03-23 14:32:00,63.0,33.0,29.63,NE,34,2.0,-999.0,33,-99.99,,,-99.99,,2013-03-23 21:32:00,
2013-03-23 14:42:00,63.0,33.0,29.63,NE,34,2.0,-999.0,33,-99.99,,,-99.99,,2013-03-23 21:42:00,
2013-03-23 14:53:00,64.0,32.0,29.63,NNE,26,3.0,-999.0,30,-99.99,,,-99.99,,2013-03-23 21:53:00,
2013-03-23 15:02:00,64.0,34.0,29.63,NNE,32,1.0,-999.0,33,-99.99,,,-99.99,,2013-03-23 22:02:00,
2013-03-23 15:12:00,64.0,34.0,29.63,NNE,32,1.0,-999.0,33,-99.99,,,-99.99,,2013-03-23 22:12:00,
2013-03-23 15:22:00,63.0,33.0,29.62,NNE,30,1.0,-999.0,32,-99.99,,,-99.99,,2013-03-23 22:22:00,
2013-03-23 15:32:00,63.0,36.0,29.62,NNE,13,1.0,-999.0,36,-99.99,,,-99.99,,2013-03-23 22:32:00,
2013-03-23 15:42:00,63.0,36.0,29.62,NNE,13,1.0,-999.0,36,-99.99,,,-99.99,,2013-03-23 22:42:00,
2013-03-23 15:52:00,63.0,34.0,29.62,North,5,0.0,-999.0,34,-99.99,,,-99.99,,2013-03-23 22:52:00,
2013-03-23 16:02:00,62.0,35.0,29.62,North,355,0.0,-999.0,37,-99.99,,,-99.99,,2013-03-23 23:02:00,
2013-03-23 16:12:00,62.0,35.0,29.62,North,355,0.0,-999.0,37,-99.99,,,-99.99,,2013-03-23 23:12:00,
2013-03-23 16:22:00,61.0,35.0,29.62,NNW,331,1.0,-999.0,38,-99.99,,,-99.99,,2013-03-23 23:22:00,
2013-03-23 16:32:00,60.0,40.0,29.63,North,355,0.0,-999.0,48,-99.99,,,-99.99,,2013-03-23 23:32:00,
2013-03-23 16:42:00,60.0,40.0,29.63,North,355,0.0,-999.0,48,-99.99,,,-99.99,,2013-03-23 23:42:00,
2013-03-23 16:52:00,59.0,40.0,29.62,North,10,0.0,-999.0,50,-99.99,,,-99.99,,2013-03-23 23:52:00,
2013-03-23 17:02:00,59.0,40.0,29.62,NW,321,0.0,-999.0,49,-99.99,,,-99.99,,2013-03-24 00:02:00,
2013-03-23 17:12:00,59.0,40.0,29.62,NW,321,0.0,-999.0,49,-99.99,,,-99.99,,2013-03-24 00:12:00,
2013-03-23 17:22:00,58.0,41.0,29.61,WNW,292,1.0,-999.0,54,-99.99,,,-99.99,,2013-03-24 00:22:00,
2013-03-23 17:32:00,57.0,40.0,29.61,NW,313,0.0,-999.0,52,-99.99,,,-99.99,,2013-03-24 00:32:00,
2013-03-23 17:41:00,57.0,40.0,29.61,NW,313,0.0,-999.0,52,-99.99,,,-99.99,,2013-03-24 00:41:00,
2013-03-23 17:52:00,56.0,40.0,29.60,WNW,298,0.0,-999.0,54,-99.99,,,-99.99,,2013-03-24 00:52:00,
2013-03-23 18:02:00,55.0,40.0,29.61,NW,306,0.0,-999.0,57,-99.99,,,-99.99,,2013-03-24 01:02:00,
2013-03-23 18:11:00,55.0,40.0,29.61,NW,306,0.0,-999.0,57,-99.99,,,-99.99,,2013-03-24 01:11:00,
2013-03-23 18:22:00,55.0,40.0,29.61,WNW,297,0.0,-999.0,57,-99.99,,,-99.99,,2013-03-24 01:22:00,
2013-03-23 18:32:00,55.0,40.0,29.61,NE,34,0.0,-999.0,57,-99.99,,,-99.99,,2013-03-24 01:32:00,
2013-03-23 18:41:00,55.0,40.0,29.61,NE,34,0.0,-999.0,57,-99.99,,,-99.99,,2013-03-24 01:41:00,
2013-03-23 18:52:00,53.0,40.0,29.61,NE,36,0.0,-999.0,61,-99.99,,,-99.99,,2013-03-24 01:52:00,
2013-03-23 19:02:00,52.0,39.0,29.61,NW,310,0.0,-999.0,62,-99.99,,,-99.99,,2013-03-24 02:02:00,
2013-03-23 19:11:00,52.0,39.0,29.61,NW,310,0.0,-999.0,62,-99.99,,,-99.99,,2013-03-24 02:11:00,
2013-03-23 19:21:00,51.0,39.0,29.62,NW,309,0.0,-999.0,64,-99.99,,,-99.99,,2013-03-24 02:21:00,
2013-03-23 19:32:00,49.0,39.0,29.62,NW,308,0.0,-999.0,67,-99.99,,,-99.99,,2013-03-24 02:32:00,
2013-03-23 19:42:00,49.0,39.0,29.62,NW,308,0.0,-999.0,67,-99.99,,,-99.99,,2013-03-24 02:42:00,
2013-03-23 19:52:00,48.0,38.0,29.62,NW,304,0.0,-999.0,67,-99.99,,,-99.99,,2013-03-24 02:52:00,
2013-03-23 20:02:00,48.0,38.0,29.62,NW,304,0.0,-999.0,67,-99.99,,,-99.99,,2013-03-24 03:02:00,
2013-03-23 20:11:00,48.0,38.0,29.62,NW,304,0.0,-999.0,67,-99.99,,,-99.99,,2013-03-24 03:11:00,
2013-03-23 20:22:00,46.0,29.0,29.62,WNW,300,0.0,-999.0,52,-99.99,,,-99.99,,2013-03-24 03:22:00,
2013-03-23 20:33:00,46.0,31.0,29.63,WNW,299,0.0,-999.0,56,-99.99,,,-99.99,,2013-03-24 03:33:00,
2013-03-23 20:42:00,46.0,31.0,29.63,WNW,299,0.0,-999.0,56,-99.99,,,-99.99,,2013-03-24 03:42:00,
2013-03-23 20:52:00,47.0,28.0,29.63,WNW,299,0.0,-999.0,48,-99.99,,,-99.99,,2013-03-24 03:52:00,
2013-03-23 21:02:00,46.0,26.0,29.63,North,350,0.0,-999.0,45,-99.99,,,-99.99,,2013-03-24 04:02:00,
2013-03-23 21:32:00,47.0,27.0,29.64,NE,38,0.0,-999.0,45,-99.99,,,-99.99,,2013-03-24 04:32:00,
2013-03-23 21:42:00,47.0,27.0,29.64,NE,38,0.0,-999.0,45,-99.99,,,-99.99,,2013-03-24 04:42:00,
2013-03-23 21:53:00,48.0,27.0,29.65,NE,36,0.0,-999.0,43,-99.99,,,-99.99,,2013-03-24 04:53:00,
2013-03-23 22:02:00,47.0,27.0,29.65,SW,223,1.0,-999.0,45,-99.99,,,-99.99,,2013-03-24 05:02:00,
2013-03-23 22:12:00,47.0,27.0,29.65,SW,223,1.0,-999.0,45,-99.99,,,-99.99,,2013-03-24 05:12:00,
2013-03-23 22:22:00,47.0,26.0,29.64,SW,223,0.0,-999.0,44,-99.99,,,-99.99,,2013-03-24 05:22:00,
2013-03-23 22:32:00,47.0,26.0,29.64,SW,215,0.0,-999.0,44,-99.99,,,-99.99,,2013-03-24 05:32:00,
2013-03-23 22:42:00,47.0,26.0,29.64,SW,215,0.0,-999.0,44,-99.99,,,-99.99,,2013-03-24 05:42:00,
2013-03-23 22:51:00,48.0,26.0,29.65,SW,215,0.0,-999.0,42,-99.99,,,-99.99,,2013-03-24 05:51:00,
2013-03-23 23:02:00,48.0,27.0,29.65,SW,215,0.0,-999.0,43,-99.99,,,-99.99,,2013-03-24 06:02:00,
2013-03-23 23:11:00,48.0,27.0,29.65,SW,215,0.0,-999.0,43,-99.99,,,-99.99,,2013-03-24 06:11:00,
2013-03-23 23:21:00,49.0,26.0,29.64,SW,214,0.0,-999.0,41,-99.99,,,-99.99,,2013-03-24 06:21:00,
2013-03-23 23:32:00,49.0,27.0,29.64,East,99,0.0,-999.0,42,-99.99,,,-99.99,,2013-03-24 06:32:00,
2013-03-23 23:42:00,49.0,27.0,29.64,East,99,0.0,-999.0,42,-99.99,,,-99.99,,2013-03-24 06:42:00,
2013-03-23 23:51:00,49.0,26.0,29.64,East,99,0.0,-999.0,41,-99.99,,,-99.99,,2013-03-24 06:51:00,